createdAt,value
2018-07-01T00:00:16.355Z,95709.38
2018-07-01T00:02:46.982Z,95710.42
2018-07-01T00:05:17.492Z,95711.94
2018-07-01T00:07:47.882Z,95711.94
2018-07-01T00:10:19.324Z,95708.09
2018-07-01T00:12:49.844Z,95705.50
2018-07-01T00:15:20.729Z,95710.25
2018-07-01T00:17:51.281Z,95709.18
2018-07-01T00:20:21.922Z,95710.26
2018-07-01T00:22:52.416Z,95715.36
2018-07-01T00:25:22.892Z,95716.87
2018-07-01T00:27:53.328Z,95716.13
2018-07-01T00:30:24.186Z,95713.50
2018-07-01T00:32:55.853Z,95717.59
2018-07-01T00:35:26.309Z,95717.37
2018-07-01T00:37:56.829Z,95711.55
2018-07-01T00:40:28.054Z,95715.09
2018-07-01T00:42:57.981Z,95715.31
2018-07-01T00:49:06.042Z,95711.59
2018-07-01T00:51:36.773Z,95715.03
2018-07-01T00:54:07.274Z,95715.88
2018-07-01T00:56:37.154Z,95715.45
2018-07-01T00:59:07.150Z,95714.27
2018-07-01T01:01:37.134Z,95715.45
2018-07-01T01:04:07.129Z,95704.86
2018-07-01T01:06:36.989Z,95712.80
2018-07-01T01:09:11.404Z,95715.98
2018-07-01T01:11:41.700Z,95716.43
2018-07-01T01:14:12.348Z,95719.30
2018-07-01T01:16:42.139Z,95718.69
2018-07-01T01:19:12.563Z,95725.71
2018-07-01T01:21:43.002Z,95725.52
2018-07-01T01:25:09.590Z,95730.82
2018-07-01T01:27:40.033Z,95721.84
2018-07-01T01:30:10.373Z,95721.53
2018-07-01T01:32:40.786Z,95725.47
2018-07-01T01:35:11.283Z,95724.33
2018-07-01T01:44:58.705Z,95724.30
2018-07-01T01:47:33.767Z,95713.08
2018-07-01T01:50:08.610Z,95708.77
2018-07-01T01:52:47.075Z,95711.20
2018-07-01T01:55:22.863Z,95717.05
2018-07-01T01:58:00.689Z,95711.92
2018-07-01T02:00:39.455Z,95710.43
2018-07-01T02:03:13.761Z,95713.39
2018-07-01T02:06:18.035Z,95709.78
2018-07-01T02:08:51.273Z,95710.53
2018-07-01T02:11:21.428Z,95706.90
2018-07-01T02:13:55.228Z,95708.17
2018-07-01T02:16:32.105Z,95720.89
2018-07-01T02:19:02.561Z,95713.30
2018-07-01T02:21:32.643Z,95720.27
2018-07-01T02:24:05.815Z,95720.75
2018-07-01T02:26:35.786Z,95734.61
2018-07-01T02:29:05.694Z,95727.71
2018-07-01T02:31:35.575Z,95733.20
2018-07-01T02:34:05.535Z,95724.53
2018-07-01T02:36:35.439Z,95726.48
2018-07-01T02:39:08.288Z,95715.30
2018-07-01T02:41:40.569Z,95723.96
2018-07-01T02:44:10.809Z,95723.64
2018-07-01T02:46:40.685Z,95721.55
2018-07-01T02:49:10.580Z,95727.77
2018-07-01T02:51:40.409Z,95727.72
2018-07-01T02:54:10.262Z,95725.27
2018-07-01T02:56:40.157Z,95727.75
2018-07-01T02:59:09.950Z,95722.80
2018-07-01T03:01:39.795Z,95729.33
2018-07-01T03:04:09.670Z,95727.30
2018-07-01T03:06:39.616Z,95733.03
2018-07-01T03:09:12.823Z,95732.17
2018-07-01T03:11:42.659Z,95728.71
2018-07-01T03:14:12.503Z,95731.77
2018-07-01T03:16:42.335Z,95735.43
2018-07-01T03:19:12.305Z,95737.67
2018-07-01T03:21:42.203Z,95737.59
2018-07-01T03:24:12.097Z,95739.41
2018-07-01T03:26:41.946Z,95745.66
2018-07-01T03:29:12.135Z,95745.69
2018-07-01T03:31:42.258Z,95754.37
2018-07-01T03:34:12.191Z,95750.87
2018-07-01T03:36:42.163Z,95755.92
2018-07-01T03:39:12.029Z,95753.35
2018-07-01T03:41:41.846Z,95760.14
2018-07-01T03:44:11.663Z,95755.17
2018-07-01T03:46:41.571Z,95746.65
2018-07-01T03:49:11.459Z,95749.28
2018-07-01T03:51:41.677Z,95755.89
2018-07-01T03:54:11.579Z,95756.37
2018-07-01T03:56:41.521Z,95756.08
2018-07-01T03:59:11.425Z,95756.64
2018-07-01T04:01:41.408Z,95757.53
2018-07-01T04:04:11.571Z,95756.30
2018-07-01T04:06:41.668Z,95763.55
2018-07-01T04:09:12.989Z,95764.75
2018-07-01T04:11:43.053Z,95762.85
2018-07-01T04:15:09.986Z,95770.17
2018-07-01T04:17:39.861Z,95768.30
2018-07-01T04:20:09.747Z,95775.75
2018-07-01T04:22:39.627Z,95764.13
2018-07-01T04:25:09.453Z,95773.67
2018-07-01T04:27:39.363Z,95775.59
2018-07-01T04:30:09.637Z,95777.60
2018-07-01T04:32:39.697Z,95776.33
2018-07-01T04:35:09.822Z,95777.75
2018-07-01T04:37:39.835Z,95775.95
2018-07-01T04:40:09.850Z,95783.94
2018-07-01T04:42:39.779Z,95782.58
2018-07-01T04:45:10.008Z,95779.27
2018-07-01T04:47:39.857Z,95780.60
2018-07-01T04:50:10.005Z,95781.64
2018-07-01T04:52:40.009Z,95784.01
2018-07-01T04:55:09.972Z,95779.55
2018-07-01T04:57:40.571Z,95789.10
2018-07-01T05:00:11.444Z,95788.96
2018-07-01T05:02:42.223Z,95790.92
2018-07-01T05:05:12.993Z,95797.57
2018-07-01T05:07:43.349Z,95793.15
2018-07-01T05:10:13.943Z,95794.16
2018-07-01T05:12:44.337Z,95802.23
2018-07-01T05:15:14.720Z,95800.55
2018-07-01T05:17:45.957Z,95801.93
2018-07-01T05:20:16.356Z,95799.64
2018-07-01T05:22:47.198Z,95808.23
2018-07-01T05:25:17.642Z,95798.36
2018-07-01T05:27:48.875Z,95812.75
2018-07-01T05:30:19.290Z,95817.20
2018-07-01T05:32:49.669Z,95818.86
2018-07-01T05:36:11.096Z,95825.19
2018-07-01T05:38:41.568Z,95815.80
2018-07-01T05:41:11.732Z,95826.70
2018-07-01T05:43:42.260Z,95830.55
2018-07-01T05:46:12.722Z,95819.94
2018-07-01T05:48:42.769Z,95819.63
2018-07-01T05:51:13.730Z,95810.25
2018-07-01T05:53:43.681Z,95825.72
2018-07-01T05:56:13.570Z,95816.97
2018-07-01T05:58:43.624Z,95818.03
2018-07-01T06:01:13.646Z,95824.57
2018-07-01T06:03:43.580Z,95831.39
2018-07-01T06:06:13.718Z,95827.83
2018-07-01T06:08:43.821Z,95828.50
2018-07-01T06:11:14.768Z,95830.34
2018-07-01T06:13:44.976Z,95827.39
2018-07-01T06:16:15.248Z,95825.50
2018-07-01T06:18:46.288Z,95826.98
2018-07-01T06:21:16.608Z,95823.77
2018-07-01T06:23:46.532Z,95834.04
2018-07-01T06:26:16.722Z,95835.32
2018-07-01T06:28:46.571Z,95826.76
2018-07-01T06:31:16.045Z,95828.80
2018-07-01T06:33:46.202Z,95839.98
2018-07-01T06:36:16.043Z,95845.94
2018-07-01T06:38:45.952Z,95840.11
2018-07-01T06:41:15.963Z,95830.98
2018-07-01T06:43:45.832Z,95837.92
2018-07-01T06:46:17.192Z,95831.13
2018-07-01T06:48:47.460Z,95835.99
2018-07-01T06:51:18.032Z,95834.09
2018-07-01T06:53:48.035Z,95838.72
2018-07-01T06:56:18.041Z,95833.24
2018-07-01T06:58:47.966Z,95836.38
2018-07-01T07:01:17.860Z,95825.03
2018-07-01T07:07:23.616Z,95826.80
2018-07-01T07:09:53.476Z,95822.84
2018-07-01T07:12:24.854Z,95817.63
2018-07-01T07:14:55.530Z,95818.40
2018-07-01T07:17:25.444Z,95808.05
2018-07-01T07:19:56.111Z,95804.73
2018-07-01T07:22:26.191Z,95811.85
2018-07-01T07:24:56.601Z,95811.14
2018-07-01T07:27:28.110Z,95812.05
2018-07-01T07:29:58.614Z,95807.87
2018-07-01T07:32:29.066Z,95808.08
2018-07-01T07:34:59.773Z,95809.77
2018-07-01T07:37:30.166Z,95814.84
2018-07-01T07:40:01.164Z,95824.70
2018-07-01T07:42:31.750Z,95829.34
2018-07-01T07:45:02.251Z,95831.59
2018-07-01T07:47:33.384Z,95827.58
2018-07-01T07:50:03.834Z,95827.27
2018-07-01T07:52:34.583Z,95821.31
2018-07-01T07:55:04.994Z,95810.25
2018-07-01T07:57:35.376Z,95821.77
2018-07-01T08:00:06.276Z,95819.77
2018-07-01T08:02:37.001Z,95826.58
2018-07-01T08:05:07.608Z,95809.00
2018-07-01T08:07:37.985Z,95817.64
2018-07-01T08:10:08.566Z,95818.10
2018-07-01T08:12:39.039Z,95817.66
2018-07-01T08:15:09.592Z,95817.63
2018-07-01T08:17:40.159Z,95815.83
2018-07-01T08:20:10.634Z,95814.66
2018-07-01T08:22:41.153Z,95810.52
2018-07-01T08:25:11.634Z,95816.55
2018-07-01T08:27:42.990Z,95804.73
2018-07-01T08:30:13.464Z,95807.51
2018-07-01T08:32:44.234Z,95800.70
2018-07-01T08:35:14.760Z,95814.78
2018-07-01T08:37:45.287Z,95801.02
2018-07-01T08:40:16.789Z,95807.19
2018-07-01T08:42:47.522Z,95808.59
2018-07-01T08:45:18.078Z,95812.23
2018-07-01T08:47:48.904Z,95800.91
2018-07-01T08:50:19.388Z,95808.20
2018-07-01T08:52:51.092Z,95815.27
2018-07-01T08:55:21.579Z,95815.33
2018-07-01T08:57:52.124Z,95809.73
2018-07-01T09:00:22.632Z,95806.13
2018-07-01T09:02:54.927Z,95818.13
2018-07-01T09:05:25.962Z,95802.19
2018-07-01T09:07:56.685Z,95809.19
2018-07-01T09:10:28.604Z,95818.41
2018-07-01T09:12:59.696Z,95818.56
2018-07-01T09:15:30.198Z,95817.91
2018-07-01T09:18:00.628Z,95820.69
2018-07-01T09:20:31.112Z,95822.02
2018-07-01T09:23:01.550Z,95805.03
2018-07-01T09:25:32.014Z,95815.28
2018-07-01T09:28:02.496Z,95814.20
2018-07-01T09:30:32.976Z,95818.88
2018-07-01T09:33:03.595Z,95808.76
2018-07-01T09:35:34.015Z,95802.20
2018-07-01T09:38:04.553Z,95826.12
2018-07-01T09:40:35.100Z,95811.20
2018-07-01T09:43:05.643Z,95815.00
2018-07-01T09:45:36.105Z,95805.50
2018-07-01T09:48:06.631Z,95806.33
2018-07-01T09:50:37.210Z,95805.84
2018-07-01T09:53:08.319Z,95805.89
2018-07-01T09:55:39.703Z,95792.46
2018-07-01T09:58:10.647Z,95812.17
2018-07-01T10:00:41.075Z,95804.87
2018-07-01T10:03:11.539Z,95810.13
2018-07-01T10:05:42.100Z,95817.41
2018-07-01T10:08:12.549Z,95815.70
2018-07-01T10:10:43.098Z,95799.31
2018-07-01T10:13:14.056Z,95796.74
2018-07-01T10:15:45.223Z,95802.63
2018-07-01T10:18:15.583Z,95799.15
2018-07-01T10:20:45.932Z,95804.20
2018-07-01T10:23:16.383Z,95790.36
2018-07-01T10:25:46.817Z,95812.31
2018-07-01T10:28:17.175Z,95785.24
2018-07-01T10:30:47.199Z,95798.88
2018-07-01T10:33:17.639Z,95790.25
2018-07-01T10:35:48.079Z,95788.30
2018-07-01T10:38:18.867Z,95792.48
2018-07-01T10:40:49.375Z,95785.59
2018-07-01T10:43:19.793Z,95785.64
2018-07-01T10:45:50.248Z,95775.41
2018-07-01T10:48:20.665Z,95777.80
2018-07-01T10:50:51.386Z,95785.71
2018-07-01T10:53:22.207Z,95785.19
2018-07-01T10:55:52.691Z,95795.52
2018-07-01T10:58:23.165Z,95776.19
2018-07-01T11:00:53.540Z,95767.58
2018-07-01T11:03:24.261Z,95779.95
2018-07-01T11:05:54.640Z,95781.53
2018-07-01T11:08:25.240Z,95776.05
2018-07-01T11:10:56.221Z,95778.37
2018-07-01T11:13:26.656Z,95775.14
2018-07-01T11:15:57.319Z,95767.11
2018-07-01T11:18:27.969Z,95769.98
2018-07-01T11:20:58.575Z,95786.09
2018-07-01T11:23:29.051Z,95783.31
2018-07-01T11:26:01.306Z,95795.19
2018-07-01T11:28:31.697Z,95790.03
2018-07-01T11:31:02.139Z,95760.22
2018-07-01T11:33:32.749Z,95772.27
2018-07-01T11:36:03.165Z,95765.53
2018-07-01T11:38:33.535Z,95775.47
2018-07-01T11:41:04.027Z,95777.59
2018-07-01T11:43:34.483Z,95769.29
2018-07-01T11:46:05.081Z,95754.44
2018-07-01T11:48:35.587Z,95759.84
2018-07-01T11:51:06.077Z,95757.27
2018-07-01T11:53:37.019Z,95750.59
2018-07-01T11:56:08.631Z,95741.69
2018-07-01T11:58:40.034Z,95738.25
2018-07-01T12:01:10.808Z,95756.90
2018-07-01T12:03:41.599Z,95761.09
2018-07-01T12:06:12.115Z,95746.09
2018-07-01T12:08:42.633Z,95752.52
2018-07-01T12:11:13.466Z,95762.24
2018-07-01T12:13:45.475Z,95760.89
2018-07-01T12:16:15.932Z,95747.37
2018-07-01T12:18:46.487Z,95747.41
2018-07-01T12:21:16.924Z,95757.55
2018-07-01T12:23:47.463Z,95745.20
2018-07-01T12:26:17.818Z,95744.16
2018-07-01T12:28:48.274Z,95752.78
2018-07-01T12:31:19.345Z,95743.77
2018-07-01T12:33:50.197Z,95732.44
2018-07-01T12:36:20.955Z,95724.73
2018-07-01T12:38:51.721Z,95747.20
2018-07-01T12:41:23.147Z,95731.83
2018-07-01T12:43:55.907Z,95743.20
2018-07-01T12:46:26.669Z,95731.10
2018-07-01T12:48:57.291Z,95731.10
2018-07-01T12:51:27.785Z,95726.50
2018-07-01T12:57:34.148Z,95725.62
2018-07-01T13:00:05.632Z,95718.08
2018-07-01T13:02:36.137Z,95731.39
2018-07-01T13:05:08.675Z,95720.98
2018-07-01T13:07:40.195Z,95727.31
2018-07-01T13:10:10.642Z,95710.48
2018-07-01T13:12:41.149Z,95704.63
2018-07-01T13:15:11.690Z,95718.00
2018-07-01T13:17:42.226Z,95715.82
2018-07-01T13:20:13.450Z,95684.50
2018-07-01T13:22:44.950Z,95706.13
2018-07-01T13:25:16.219Z,95702.71
2018-07-01T13:27:47.723Z,95700.03
2018-07-01T13:30:18.378Z,95700.92
2018-07-01T13:32:49.508Z,95695.20
2018-07-01T13:35:19.927Z,95691.78
2018-07-01T13:37:52.202Z,95688.46
2018-07-01T13:40:25.046Z,95693.92
2018-07-01T13:42:55.930Z,95681.22
2018-07-01T13:45:26.935Z,95699.53
2018-07-01T13:47:57.831Z,95685.17
2018-07-01T13:50:30.031Z,95688.46
2018-07-01T13:53:05.052Z,95683.88
2018-07-01T13:55:35.521Z,95671.80
2018-07-01T13:58:07.143Z,95684.27
2018-07-01T14:00:39.151Z,95672.81
2018-07-01T14:03:11.455Z,95681.06
2018-07-01T14:05:49.560Z,95689.62
2018-07-01T14:08:20.111Z,95688.22
2018-07-01T14:10:50.615Z,95687.45
2018-07-01T14:13:24.084Z,95704.73
2018-07-01T14:15:55.449Z,95668.96
2018-07-01T14:18:25.958Z,95668.70
2018-07-01T14:20:56.744Z,95681.55
2018-07-01T14:23:27.274Z,95672.68
2018-07-01T14:25:57.958Z,95665.91
2018-07-01T14:28:29.424Z,95676.22
2018-07-01T14:31:01.397Z,95664.66
2018-07-01T14:33:31.831Z,95670.50
2018-07-01T14:36:02.732Z,95669.09
2018-07-01T14:38:33.272Z,95657.63
2018-07-01T14:41:03.670Z,95646.44
2018-07-01T14:43:34.695Z,95656.95
2018-07-01T14:46:05.416Z,95658.65
2018-07-01T14:48:36.123Z,95649.09
2018-07-01T14:51:07.136Z,95653.75
2018-07-01T14:53:38.844Z,95647.23
2018-07-01T14:59:44.984Z,95654.67
2018-07-01T15:02:18.144Z,95656.70
2018-07-01T15:04:49.566Z,95653.67
2018-07-01T15:07:20.109Z,95665.14
2018-07-01T15:09:50.968Z,95642.59
2018-07-01T15:12:21.430Z,95644.24
2018-07-01T15:14:51.818Z,95653.06
2018-07-01T15:17:22.894Z,95650.64
2018-07-01T15:19:53.346Z,95653.30
2018-07-01T15:22:23.800Z,95644.36
2018-07-01T15:24:54.554Z,95653.83
2018-07-01T15:27:25.032Z,95655.61
2018-07-01T15:29:55.600Z,95644.91
2018-07-01T15:32:26.236Z,95643.27
2018-07-01T15:34:57.312Z,95655.25
2018-07-01T15:37:27.746Z,95657.02
2018-07-01T15:39:58.542Z,95644.54
2018-07-01T15:42:29.161Z,95641.72
2018-07-01T15:44:59.832Z,95655.61
2018-07-01T15:47:30.176Z,95652.69
2018-07-01T15:50:00.858Z,95640.83
2018-07-01T15:52:31.897Z,95662.01
2018-07-01T15:55:02.375Z,95646.06
2018-07-01T15:57:33.166Z,95626.48
2018-07-01T16:00:05.126Z,95629.66
2018-07-01T16:02:35.536Z,95627.73
2018-07-01T16:05:06.696Z,95624.95
2018-07-01T16:07:37.336Z,95638.98
2018-07-01T16:10:07.807Z,95636.05
2018-07-01T16:12:38.204Z,95628.03
2018-07-01T16:15:08.786Z,95628.28
2018-07-01T16:17:38.774Z,95643.53
2018-07-01T16:20:09.352Z,95631.84
2018-07-01T16:22:39.770Z,95630.17
2018-07-01T16:25:15.694Z,95605.23
2018-07-01T16:27:51.184Z,95623.70
2018-07-01T16:30:21.520Z,95622.16
2018-07-01T16:32:53.003Z,95629.78
2018-07-01T16:35:23.586Z,95626.22
2018-07-01T16:37:54.742Z,95634.37
2018-07-01T16:40:25.157Z,95619.88
2018-07-01T16:42:58.792Z,95629.16
2018-07-01T16:45:29.178Z,95624.94
2018-07-01T16:47:59.637Z,95626.48
2018-07-01T16:50:30.370Z,95624.95
2018-07-01T16:53:01.112Z,95631.44
2018-07-01T16:55:32.724Z,95634.25
2018-07-01T16:58:03.132Z,95634.23
2018-07-01T17:00:34.604Z,95636.91
2018-07-01T17:03:04.957Z,95632.55
2018-07-01T17:05:35.415Z,95636.70
2018-07-01T17:08:06.377Z,95637.62
2018-07-01T17:10:36.825Z,95644.86
2018-07-01T17:13:07.275Z,95639.21
2018-07-01T17:15:37.877Z,95640.57
2018-07-01T17:18:08.366Z,95641.17
2018-07-01T17:20:39.383Z,95648.35
2018-07-01T17:23:10.055Z,95645.30
2018-07-01T17:25:45.687Z,95651.94
2018-07-01T17:28:16.425Z,95643.28
2018-07-01T17:30:46.867Z,95642.63
2018-07-01T17:33:23.298Z,95657.17
2018-07-01T17:35:54.481Z,95655.10
2018-07-01T17:38:24.993Z,95650.20
2018-07-01T17:40:55.871Z,95656.78
2018-07-01T17:43:27.915Z,95650.38
2018-07-01T17:45:59.933Z,95662.43
2018-07-01T17:48:31.352Z,95658.73
2018-07-01T17:51:02.160Z,95662.38
2018-07-01T17:53:57.583Z,95663.39
2018-07-01T17:56:28.163Z,95649.86
2018-07-01T17:58:58.558Z,95657.51
2018-07-01T18:01:28.970Z,95648.47
2018-07-01T18:03:59.525Z,95648.84
2018-07-01T18:06:30.743Z,95637.34
2018-07-01T18:09:02.009Z,95642.59
2018-07-01T18:11:32.426Z,95643.35
2018-07-01T18:14:02.775Z,95645.69
2018-07-01T18:16:33.197Z,95639.95
2018-07-01T18:19:03.835Z,95641.82
2018-07-01T18:21:41.213Z,95645.59
2018-07-01T18:24:35.145Z,95645.08
2018-07-01T18:26:36.105Z,95640.89
2018-07-01T18:29:15.297Z,95652.05
2018-07-01T18:31:37.599Z,95644.28
2018-07-01T18:34:08.185Z,95636.48
2018-07-01T18:36:38.922Z,95647.52
2018-07-01T18:39:10.183Z,95643.39
2018-07-01T18:41:40.767Z,95640.42
2018-07-01T18:44:12.937Z,95634.98
2018-07-01T18:46:43.456Z,95640.86
2018-07-01T18:49:14.195Z,95650.59
2018-07-01T18:51:46.355Z,95656.66
2018-07-01T18:54:18.405Z,95657.14
2018-07-01T18:56:54.553Z,95655.33
2018-07-01T18:59:25.701Z,95654.19
2018-07-01T19:01:56.723Z,95666.48
2018-07-01T19:04:27.075Z,95667.09
2018-07-01T19:06:57.543Z,95659.42
2018-07-01T19:09:28.071Z,95671.93
2018-07-01T19:11:58.781Z,95666.59
2018-07-01T19:14:29.443Z,95681.24
2018-07-01T19:17:00.017Z,95685.68
2018-07-01T19:19:31.202Z,95684.87
2018-07-01T19:22:02.517Z,95685.59
2018-07-01T19:24:32.944Z,95684.95
2018-07-01T19:27:05.328Z,95694.87
2018-07-01T19:29:36.544Z,95693.71
2018-07-01T19:32:07.404Z,95689.41
2018-07-01T19:34:38.129Z,95687.91
2018-07-01T19:37:08.673Z,95681.64
2018-07-01T19:39:38.701Z,95686.80
2018-07-01T19:42:09.309Z,95691.84
2018-07-01T19:44:40.694Z,95700.95
2018-07-01T19:47:11.515Z,95698.66
2018-07-01T19:49:41.837Z,95698.38
2018-07-01T19:52:12.259Z,95706.62
2018-07-01T19:54:42.702Z,95697.40
2018-07-01T19:57:13.226Z,95703.75
2018-07-01T19:59:43.659Z,95703.02
2018-07-01T20:02:14.505Z,95706.28
2018-07-01T20:04:45.096Z,95708.15
2018-07-01T20:07:16.397Z,95708.66
2018-07-01T20:09:46.752Z,95700.85
2018-07-01T20:12:17.081Z,95710.26
2018-07-01T20:14:47.618Z,95713.64
2018-07-01T20:17:18.073Z,95721.86
2018-07-01T20:19:48.569Z,95719.09
2018-07-01T20:22:20.828Z,95723.86
2018-07-01T20:24:51.269Z,95729.43
2018-07-01T20:27:21.806Z,95731.42
2018-07-01T20:29:52.264Z,95737.45
2018-07-01T20:32:26.189Z,95731.30
2018-07-01T20:34:56.600Z,95731.44
2018-07-01T20:37:27.044Z,95727.59
2018-07-01T20:39:57.425Z,95728.38
2018-07-01T20:42:27.803Z,95732.09
2018-07-01T20:44:58.273Z,95731.78
2018-07-01T20:47:29.266Z,95732.85
2018-07-01T20:50:01.014Z,95737.62
2018-07-01T20:52:31.390Z,95732.06
2018-07-01T20:55:02.078Z,95733.76
2018-07-01T20:57:32.562Z,95730.22
2018-07-01T21:00:10.493Z,95736.69
2018-07-01T21:02:41.422Z,95724.83
2018-07-01T21:05:12.411Z,95735.00
2018-07-01T21:07:43.504Z,95734.30
2018-07-01T21:10:13.861Z,95740.92
2018-07-01T21:12:45.072Z,95743.39
2018-07-01T21:15:15.933Z,95743.22
2018-07-01T21:17:46.511Z,95747.37
2018-07-01T21:20:17.230Z,95751.98
2018-07-01T21:22:47.858Z,95745.98
2018-07-01T21:25:18.430Z,95750.44
2018-07-01T21:27:49.090Z,95756.27
2018-07-01T21:30:19.701Z,95752.59
2018-07-01T21:32:50.404Z,95754.72
2018-07-01T21:35:21.019Z,95764.66
2018-07-01T21:37:51.629Z,95755.09
2018-07-01T21:40:21.952Z,95749.94
2018-07-01T21:42:52.750Z,95752.09
2018-07-01T21:45:23.145Z,95755.87
2018-07-01T21:47:53.122Z,95753.80
2018-07-01T21:50:23.288Z,95762.56
2018-07-01T21:52:53.348Z,95761.69
2018-07-01T21:55:23.399Z,95758.73
2018-07-01T21:57:54.151Z,95761.30
2018-07-01T22:00:29.286Z,95761.56
2018-07-01T22:02:59.505Z,95758.94
2018-07-01T22:05:29.440Z,95755.97
2018-07-01T22:07:59.570Z,95754.91
2018-07-01T22:10:46.238Z,95753.33
2018-07-01T22:14:38.388Z,95748.52
2018-07-01T22:17:12.131Z,95749.95
2018-07-01T22:19:42.184Z,95756.79
2018-07-01T22:22:12.311Z,95745.52
2018-07-01T22:24:42.471Z,95740.28
2018-07-01T22:27:12.593Z,95743.19
2018-07-01T22:29:42.807Z,95738.61
2018-07-01T22:32:12.986Z,95749.77
2018-07-01T22:34:43.078Z,95743.16
2018-07-01T22:37:13.415Z,95743.14
2018-07-01T22:39:43.522Z,95747.59
2018-07-01T22:42:14.601Z,95743.66
2018-07-01T22:44:44.994Z,95742.19
2018-07-01T22:47:16.997Z,95743.36
2018-07-01T22:49:46.994Z,95741.38
2018-07-01T22:52:16.968Z,95744.31
2018-07-01T22:54:46.998Z,95747.02
2018-07-01T22:57:17.062Z,95742.39
2018-07-01T22:59:47.838Z,95749.34
2018-07-01T23:03:02.038Z,95739.20
2018-07-01T23:05:32.184Z,95738.11
2018-07-01T23:08:02.275Z,95738.06
2018-07-01T23:10:32.815Z,95741.36
2018-07-01T23:13:03.038Z,95742.20
2018-07-01T23:15:33.098Z,95740.37
2018-07-01T23:18:03.212Z,95737.86
2018-07-01T23:20:33.202Z,95749.03
2018-07-01T23:23:03.208Z,95738.67
2018-07-01T23:25:33.228Z,95738.45
2018-07-01T23:28:03.258Z,95739.30
2018-07-01T23:30:33.252Z,95731.69
2018-07-01T23:33:03.258Z,95732.89
2018-07-01T23:35:33.279Z,95733.99
2018-07-01T23:38:03.378Z,95730.53
2018-07-01T23:40:33.423Z,95731.91
2018-07-01T23:43:03.434Z,95731.02
2018-07-01T23:45:33.468Z,95730.78
2018-07-01T23:48:03.491Z,95723.68
2018-07-01T23:50:33.590Z,95725.86
2018-07-01T23:53:03.642Z,95725.23
2018-07-01T23:55:33.787Z,95728.50
2018-07-01T23:58:04.009Z,95716.38
